Time;durP1;ratioP1;P1;durP2;ratioP2;P2;SDS_P1;SDS_P2;PMS_P1;PMS_P2;Temp;Humidity;BMP_temperature;BMP_pressure;BME280_temperature;BME280_humidity;BME280_pressure;Samples;Min_cycle;Max_cycle;Signal;HPM_P1;HPM_P2
2024/03/16 00:01:48;;;;;;;6.05;1.73;;;11.90;99.90;;;;;;5057921;28;20033;-61
2024/03/16 00:04:13;;;;;;;6.75;1.70;;;11.90;99.90;;;;;;5069859;28;20127;-61
2024/03/16 00:06:39;;;;;;;6.68;1.85;;;11.90;99.90;;;;;;5062854;28;20477;-54
2024/03/16 00:09:04;;;;;;;4.32;1.92;;;11.80;99.90;;;;;;5051009;28;20025;-55
2024/03/16 00:11:31;;;;;;;7.03;1.77;;;11.80;99.90;;;;;;5051359;28;20057;-54
2024/03/16 00:13:59;;;;;;;3.45;1.95;;;11.80;99.90;;;;;;5055250;28;20400;-51
2024/03/16 00:16:24;;;;;;;6.57;1.85;;;11.70;99.90;;;;;;5061732;28;20021;-52
2024/03/16 00:18:50;;;;;;;4.55;1.90;;;11.70;99.90;;;;;;5059641;28;20029;-50
2024/03/16 00:21:15;;;;;;;6.97;1.67;;;11.60;99.90;;;;;;5050828;28;20224;-49
2024/03/16 00:23:41;;;;;;;3.67;1.83;;;11.60;99.90;;;;;;5068167;28;20042;-52
2024/03/16 00:26:07;;;;;;;5.15;1.90;;;11.70;99.90;;;;;;5069505;28;20029;-50
2024/03/16 00:28:33;;;;;;;3.03;1.70;;;11.70;99.90;;;;;;5071202;28;20017;-53
2024/03/16 00:30:58;;;;;;;2.70;1.60;;;11.70;99.90;;;;;;5070644;28;20484;-52
2024/03/16 00:33:24;;;;;;;6.47;2.40;;;11.70;99.90;;;;;;5071467;28;20402;-54
2024/03/16 00:35:50;;;;;;;7.38;2.10;;;11.70;99.90;;;;;;5070728;28;20016;-53
2024/03/16 00:38:16;;;;;;;3.25;1.75;;;11.80;99.90;;;;;;5070709;28;20468;-52
2024/03/16 00:40:42;;;;;;;5.70;1.63;;;11.80;99.90;;;;;;5070571;28;20020;-45
2024/03/16 00:43:07;;;;;;;4.68;2.15;;;11.80;99.90;;;;;;5071169;28;20074;-52
2024/03/16 00:45:33;;;;;;;3.97;2.08;;;11.80;99.90;;;;;;5070851;28;20024;-51
2024/03/16 00:48:00;;;;;;;8.48;2.25;;;11.90;99.90;;;;;;5070869;28;20025;-52
2024/03/16 00:50:25;;;;;;;3.92;2.13;;;11.80;99.90;;;;;;5070756;28;20017;-54
2024/03/16 00:52:50;;;;;;;7.03;2.08;;;11.80;99.90;;;;;;5070640;28;20142;-52
2024/03/16 00:55:16;;;;;;;6.07;2.20;;;11.80;99.90;;;;;;5073383;28;20028;-50
2024/03/16 00:57:42;;;;;;;4.75;2.38;;;11.80;99.90;;;;;;5074151;28;20017;-49
2024/03/16 01:00:09;;;;;;;9.13;2.28;;;11.80;99.90;;;;;;5074244;28;20107;-52
2024/03/16 01:02:34;;;;;;;3.65;2.00;;;11.80;99.90;;;;;;5074190;28;20463;-50
2024/03/16 01:05:00;;;;;;;3.03;1.95;;;11.70;99.90;;;;;;5074165;28;20104;-50
2024/03/16 01:07:26;;;;;;;4.93;1.95;;;11.70;99.90;;;;;;5074027;28;20028;-54
2024/03/16 01:09:51;;;;;;;5.57;2.42;;;11.70;99.90;;;;;;5073965;28;20112;-49
2024/03/16 01:12:17;;;;;;;4.53;3.13;;;11.60;99.90;;;;;;5074066;28;20483;-50
2024/03/16 01:14:42;;;;;;;4.03;2.33;;;11.60;99.90;;;;;;5073780;28;20076;-51
2024/03/16 01:17:08;;;;;;;6.13;2.13;;;11.60;99.90;;;;;;5073978;28;20453;-53
2024/03/16 01:19:35;;;;;;;5.80;2.85;;;11.50;99.90;;;;;;5074044;28;20050;-51
2024/03/16 01:22:01;;;;;;;7.82;3.08;;;11.60;99.90;;;;;;5073993;28;20020;-55
2024/03/16 01:24:26;;;;;;;2.30;2.10;;;11.50;99.90;;;;;;5073478;28;20104;-53
2024/03/16 01:26:53;;;;;;;4.20;2.22;;;11.50;99.90;;;;;;5073730;28;20159;-49
2024/03/16 01:29:18;;;;;;;4.00;2.95;;;11.60;99.90;;;;;;5073656;28;20387;-53
2024/03/16 01:31:44;;;;;;;4.38;1.83;;;11.60;99.90;;;;;;5073721;28;20029;-51
2024/03/16 01:34:09;;;;;;;4.85;2.95;;;11.60;99.90;;;;;;5073610;28;20048;-51
2024/03/16 01:36:35;;;;;;;20.30;11.63;;;11.60;99.90;;;;;;5075048;22;20416;-42
2024/03/16 01:39:00;;;;;;;4.43;2.08;;;11.60;99.90;;;;;;5033138;28;20309;-42
2024/03/16 01:41:26;;;;;;;3.50;2.30;;;11.70;99.90;;;;;;5025266;28;20378;-46
2024/03/16 01:43:51;;;;;;;7.32;2.08;;;11.70;99.90;;;;;;5013860;28;20144;-45
2024/03/16 01:46:17;;;;;;;2.90;2.17;;;11.60;99.90;;;;;;5013543;28;20048;-42
2024/03/16 01:48:43;;;;;;;3.72;2.00;;;11.60;99.90;;;;;;5013720;28;20557;-42
2024/03/16 01:51:08;;;;;;;7.20;2.40;;;11.60;99.90;;;;;;5013140;28;20030;-43
2024/03/16 01:53:36;;;;;;;4.28;1.90;;;11.70;99.90;;;;;;5013670;28;20068;-44
2024/03/16 01:56:02;;;;;;;4.43;1.80;;;11.70;99.90;;;;;;5013615;28;20278;-48
2024/03/16 01:58:28;;;;;;;5.10;1.73;;;11.60;99.90;;;;;;5012309;28;20032;-43
2024/03/16 02:00:53;;;;;;;3.25;1.38;;;11.60;99.90;;;;;;5013424;28;20468;-42
2024/03/16 02:03:19;;;;;;;3.80;1.70;;;11.70;99.90;;;;;;5012284;28;20112;-43
2024/03/16 02:05:46;;;;;;;3.15;1.42;;;11.70;99.90;;;;;;5012478;28;20034;-44
2024/03/16 02:08:11;;;;;;;5.03;2.00;;;11.70;99.90;;;;;;5013335;28;20033;-42
2024/03/16 02:10:37;;;;;;;2.30;1.65;;;11.70;99.90;;;;;;5013430;28;20033;-44
2024/03/16 02:13:03;;;;;;;4.13;2.38;;;11.70;99.90;;;;;;5013119;28;20180;-44
2024/03/16 02:15:28;;;;;;;4.32;1.65;;;11.70;99.90;;;;;;5013406;28;20075;-42
2024/03/16 02:17:53;;;;;;;3.20;1.88;;;11.70;99.90;;;;;;5013206;28;20025;-42
2024/03/16 02:20:19;;;;;;;2.55;1.88;;;11.60;99.90;;;;;;5013078;28;20041;-47
2024/03/16 02:22:45;;;;;;;3.35;2.00;;;11.60;99.90;;;;;;5013332;28;20486;-46
2024/03/16 02:25:11;;;;;;;5.78;2.05;;;11.50;99.90;;;;;;5012821;28;20051;-43
2024/03/16 02:27:37;;;;;;;2.30;2.10;;;11.50;99.90;;;;;;5011712;28;20034;-45
2024/03/16 02:30:04;;;;;;;3.50;2.05;;;11.50;99.90;;;;;;5012795;28;20611;-42
2024/03/16 02:32:29;;;;;;;4.03;2.03;;;11.40;99.90;;;;;;5013057;28;20026;-42
2024/03/16 02:34:55;;;;;;;11.48;3.30;;;11.50;99.90;;;;;;5013213;28;20026;-42
2024/03/16 02:37:21;;;;;;;4.30;2.17;;;11.40;99.90;;;;;;5012989;28;20083;-44
2024/03/16 02:39:46;;;;;;;3.60;2.28;;;11.40;99.90;;;;;;5012868;28;20106;-42
2024/03/16 02:42:12;;;;;;;3.60;1.92;;;11.30;99.90;;;;;;5012805;28;20026;-43
2024/03/16 02:44:40;;;;;;;4.70;2.35;;;11.30;99.90;;;;;;5012836;28;20410;-47
2024/03/16 02:47:06;;;;;;;2.45;1.83;;;11.20;99.90;;;;;;5012960;28;20025;-46
2024/03/16 02:49:31;;;;;;;4.78;2.20;;;11.20;99.90;;;;;;5011211;28;20033;-47
2024/03/16 02:51:57;;;;;;;5.47;2.13;;;11.20;99.90;;;;;;5012569;28;20080;-45
2024/03/16 02:54:23;;;;;;;2.35;1.90;;;11.20;99.90;;;;;;5012590;28;20537;-42
2024/03/16 02:56:49;;;;;;;2.58;2.35;;;11.30;99.90;;;;;;5012418;28;20030;-47
2024/03/16 02:59:14;;;;;;;4.13;2.08;;;11.30;99.90;;;;;;5012391;28;20040;-45
2024/03/16 03:01:40;;;;;;;4.32;2.10;;;11.40;99.90;;;;;;5012612;28;20540;-41
2024/03/16 03:04:06;;;;;;;5.53;2.80;;;11.30;99.90;;;;;;5012462;28;20148;-45
2024/03/16 03:06:33;;;;;;;7.00;2.42;;;11.30;99.90;;;;;;5012393;28;20018;-44
2024/03/16 03:08:58;;;;;;;5.53;2.40;;;11.40;99.90;;;;;;5012414;28;20018;-44
2024/03/16 03:11:27;;;;;;;7.38;2.67;;;11.30;99.90;;;;;;5012230;28;20363;-44
2024/03/16 03:13:53;;;;;;;5.32;2.83;;;11.30;99.90;;;;;;5012292;28;20076;-45
2024/03/16 03:16:20;;;;;;;3.47;2.45;;;11.30;99.90;;;;;;5012070;28;20026;-45
2024/03/16 03:18:49;;;;;;;6.72;2.25;;;11.30;99.90;;;;;;5012132;28;20457;-42
2024/03/16 03:21:15;;;;;;;3.30;2.15;;;11.20;99.90;;;;;;5012110;28;20520;-43
2024/03/16 03:23:41;;;;;;;8.82;2.58;;;11.20;99.90;;;;;;5012262;28;20108;-42
2024/03/16 03:26:08;;;;;;;4.38;2.35;;;11.10;99.90;;;;;;5012889;28;20118;-45
2024/03/16 03:28:34;;;;;;;8.20;2.10;;;11.10;99.90;;;;;;5011953;28;20026;-44
2024/03/16 03:30:59;;;;;;;3.85;2.40;;;11.00;99.90;;;;;;5011457;28;20512;-46
2024/03/16 03:33:25;;;;;;;2.83;1.90;;;10.90;99.90;;;;;;5012013;28;20025;-44
2024/03/16 03:35:50;;;;;;;8.27;2.30;;;10.90;99.90;;;;;;5011396;28;20026;-43
2024/03/16 03:38:16;;;;;;;3.80;1.90;;;10.90;99.90;;;;;;5012066;28;20485;-47
2024/03/16 03:40:41;;;;;;;2.45;2.17;;;10.90;99.90;;;;;;5011808;28;20037;-43
2024/03/16 03:43:17;;;;;;;3.45;2.15;;;10.80;99.90;;;;;;5011893;28;20033;-43
2024/03/16 03:50:49;;;;;;;4.05;1.70;;;10.80;99.90;;;;;;5012150;28;19913;-45
2024/03/16 03:53:15;;;;;;;3.80;2.13;;;10.70;99.90;;;;;;5011831;28;20478;-44
2024/03/16 03:55:41;;;;;;;7.30;2.05;;;10.70;99.90;;;;;;5011840;28;20018;-44
2024/03/16 03:58:07;;;;;;;2.28;1.80;;;10.70;99.90;;;;;;5011989;28;20053;-48
2024/03/16 04:00:33;;;;;;;4.60;2.58;;;10.60;99.90;;;;;;5011483;28;20049;-48
2024/03/16 04:02:59;;;;;;;5.20;2.38;;;10.60;99.90;;;;;;5011520;28;20072;-45
2024/03/16 04:05:26;;;;;;;2.38;2.17;;;10.70;99.90;;;;;;5011643;28;20030;-45
2024/03/16 04:07:52;;;;;;;3.45;2.28;;;10.60;99.90;;;;;;5011595;28;20053;-44
2024/03/16 04:10:18;;;;;;;4.07;2.20;;;10.60;99.90;;;;;;5011196;28;20058;-45
2024/03/16 04:12:45;;;;;;;5.38;1.92;;;10.50;99.90;;;;;;5026717;28;20510;-44
2024/03/16 04:15:11;;;;;;;4.05;1.75;;;10.50;99.90;;;;;;5011683;28;20444;-43
2024/03/16 04:17:36;;;;;;;4.03;2.17;;;10.50;99.90;;;;;;5011626;28;20026;-43
2024/03/16 04:20:06;;;;;;;2.58;2.30;;;10.50;99.90;;;;;;5011741;28;20022;-43
2024/03/16 04:22:32;;;;;;;2.42;1.70;;;10.50;99.90;;;;;;5011941;28;20022;-43
2024/03/16 04:24:57;;;;;;;7.30;2.28;;;10.50;99.90;;;;;;5011939;28;20029;-47
2024/03/16 04:27:23;;;;;;;6.97;2.20;;;10.50;99.90;;;;;;5011765;28;20033;-45
2024/03/16 04:29:48;;;;;;;2.67;1.90;;;10.50;99.90;;;;;;5011869;28;20386;-43
2024/03/16 04:32:14;;;;;;;5.55;2.08;;;10.50;99.90;;;;;;5015155;28;20045;-49
2024/03/16 04:34:39;;;;;;;2.65;2.15;;;10.50;99.90;;;;;;5015252;28;20026;-44
2024/03/16 04:37:05;;;;;;;5.70;2.20;;;10.50;99.90;;;;;;5013520;28;20040;-43
2024/03/16 04:39:31;;;;;;;2.65;1.95;;;10.50;99.90;;;;;;5014954;28;20026;-44
2024/03/16 04:41:56;;;;;;;8.02;2.20;;;10.50;99.90;;;;;;5015271;28;20033;-44
2024/03/16 04:44:22;;;;;;;2.33;2.10;;;10.50;99.90;;;;;;5014722;28;20171;-46
2024/03/16 04:46:47;;;;;;;5.38;2.38;;;10.50;99.90;;;;;;5014739;28;20057;-43
2024/03/16 04:49:13;;;;;;;2.40;2.20;;;10.60;99.90;;;;;;5014741;28;20026;-42
2024/03/16 04:51:38;;;;;;;4.90;1.90;;;10.60;99.90;;;;;;5015157;28;20112;-44
2024/03/16 04:54:04;;;;;;;2.13;1.67;;;10.50;99.90;;;;;;5014629;28;20076;-47
2024/03/16 04:56:29;;;;;;;2.65;1.73;;;10.60;99.90;;;;;;5015356;28;20209;-43
2024/03/16 04:58:55;;;;;;;4.55;1.98;;;10.60;99.90;;;;;;5015985;28;20421;-43
2024/03/16 05:01:21;;;;;;;2.08;1.90;;;10.50;99.90;;;;;;5015614;28;20092;-45
2024/03/16 05:03:47;;;;;;;2.00;1.83;;;10.50;99.90;;;;;;5014687;28;20025;-43
2024/03/16 05:06:13;;;;;;;4.35;1.90;;;10.50;99.90;;;;;;5014536;28;20030;-47
2024/03/16 05:08:38;;;;;;;1.92;1.65;;;10.50;99.90;;;;;;5014481;28;20336;-45
2024/03/16 05:11:04;;;;;;;2.95;1.92;;;10.40;99.90;;;;;;5014512;28;20064;-42
2024/03/16 05:13:29;;;;;;;4.55;1.65;;;10.50;99.90;;;;;;5014571;28;20496;-43
2024/03/16 05:15:55;;;;;;;3.65;2.08;;;10.50;99.90;;;;;;5014444;28;20042;-47
2024/03/16 05:18:20;;;;;;;2.08;1.90;;;10.50;99.90;;;;;;5014427;28;20405;-45
2024/03/16 05:20:49;;;;;;;2.13;1.83;;;10.50;99.90;;;;;;5012633;28;20030;-45
2024/03/16 05:23:14;;;;;;;4.32;1.60;;;10.50;99.90;;;;;;5013068;28;20111;-42
2024/03/16 05:25:46;;;;;;;4.38;1.55;;;10.50;99.90;;;;;;5014037;28;20034;-45
2024/03/16 05:28:11;;;;;;;2.78;1.50;;;10.50;99.90;;;;;;5014099;28;20033;-44
2024/03/16 05:30:37;;;;;;;2.95;1.80;;;10.50;99.90;;;;;;5014214;28;20106;-44
2024/03/16 05:33:04;;;;;;;3.72;1.70;;;10.40;99.90;;;;;;5014060;28;20490;-42
2024/03/16 05:35:29;;;;;;;3.45;1.83;;;10.40;99.90;;;;;;5014321;28;20057;-42
2024/03/16 05:37:55;;;;;;;1.77;1.52;;;10.50;99.90;;;;;;5014031;28;20112;-46
2024/03/16 05:40:21;;;;;;;4.60;1.70;;;10.50;99.90;;;;;;5013514;28;20025;-42
2024/03/16 05:42:46;;;;;;;2.60;1.60;;;10.40;99.90;;;;;;5013653;28;20053;-43
2024/03/16 05:45:12;;;;;;;3.70;1.40;;;10.50;99.90;;;;;;5012629;28;20053;-47
2024/03/16 05:47:37;;;;;;;6.28;2.10;;;10.50;99.90;;;;;;5013723;28;20113;-43
2024/03/16 05:50:03;;;;;;;3.70;2.05;;;10.50;99.90;;;;;;5013784;28;20029;-43
2024/03/16 05:52:29;;;;;;;4.63;2.38;;;10.50;99.90;;;;;;5014347;28;20026;-47
2024/03/16 05:54:55;;;;;;;2.08;1.67;;;10.50;99.90;;;;;;5013333;28;20100;-43
2024/03/16 05:57:20;;;;;;;4.63;2.13;;;10.50;99.90;;;;;;5013349;28;20030;-43
2024/03/16 05:59:47;;;;;;;2.30;1.70;;;10.50;99.90;;;;;;5013365;28;20041;-44
2024/03/16 06:02:12;;;;;;;2.17;1.83;;;10.40;99.90;;;;;;5013473;28;20116;-44
2024/03/16 06:04:38;;;;;;;4.20;2.30;;;10.40;99.90;;;;;;5012170;28;20165;-43
2024/03/16 06:07:03;;;;;;;1.90;1.80;;;10.40;99.90;;;;;;5013261;28;20394;-44
2024/03/16 06:09:29;;;;;;;3.08;2.08;;;10.50;99.90;;;;;;5013180;28;20033;-44
2024/03/16 06:11:54;;;;;;;2.90;2.67;;;10.50;99.90;;;;;;5013202;28;20029;-43
2024/03/16 06:14:20;;;;;;;3.83;2.85;;;10.60;99.90;;;;;;5013228;28;20160;-43
2024/03/16 06:16:46;;;;;;;3.17;2.30;;;10.60;99.90;;;;;;5012993;28;20041;-43
2024/03/16 06:19:14;;;;;;;3.28;2.58;;;10.60;99.90;;;;;;5013018;28;20481;-46
2024/03/16 06:21:39;;;;;;;2.17;2.03;;;10.70;99.90;;;;;;5013207;28;20026;-43
2024/03/16 06:24:05;;;;;;;3.95;2.72;;;10.80;99.90;;;;;;5012886;28;20448;-45
2024/03/16 06:26:39;;;;;;;9.65;2.45;;;10.90;99.90;;;;;;5013140;28;20485;-43
2024/03/16 06:29:05;;;;;;;2.25;2.10;;;11.00;99.90;;;;;;5012896;28;20026;-42
2024/03/16 06:31:31;;;;;;;5.03;2.50;;;10.90;99.90;;;;;;5012962;28;20114;-43
2024/03/16 06:34:03;;;;;;;4.45;2.45;;;11.00;99.90;;;;;;5013055;28;20045;-45
2024/03/16 06:36:29;;;;;;;4.40;2.50;;;11.00;99.90;;;;;;5012682;28;20115;-47
2024/03/16 06:38:54;;;;;;;4.10;2.42;;;11.00;99.90;;;;;;5012843;28;20066;-47
2024/03/16 06:41:20;;;;;;;3.90;2.10;;;11.00;99.90;;;;;;5012690;28;20056;-42
2024/03/16 06:43:45;;;;;;;5.00;2.80;;;11.00;99.90;;;;;;5012783;28;20545;-45
2024/03/16 06:46:11;;;;;;;2.42;2.30;;;11.00;99.90;;;;;;5011588;28;20190;-45
2024/03/16 06:48:37;;;;;;;4.72;2.40;;;11.00;99.90;;;;;;5012689;28;20057;-44
2024/03/16 06:51:03;;;;;;;4.55;2.40;;;11.00;99.90;;;;;;5012212;28;20030;-49
2024/03/16 06:53:28;;;;;;;5.32;2.58;;;11.00;99.90;;;;;;5012022;28;20022;-47
2024/03/16 06:55:55;;;;;;;5.75;2.08;;;11.00;99.90;;;;;;5012302;28;20040;-42
2024/03/16 06:58:21;;;;;;;2.55;2.15;;;11.00;99.90;;;;;;5012399;28;20022;-43
2024/03/16 07:00:47;;;;;;;3.20;2.35;;;11.10;99.90;;;;;;5012370;28;20566;-42
2024/03/16 07:03:15;;;;;;;2.80;2.35;;;11.10;99.90;;;;;;5012689;28;20054;-47
2024/03/16 07:05:40;;;;;;;2.83;2.55;;;11.10;99.90;;;;;;5012202;28;20048;-44
2024/03/16 07:08:10;;;;;;;4.32;2.38;;;11.20;99.90;;;;;;5012727;28;20029;-42
2024/03/16 07:10:37;;;;;;;3.30;2.15;;;11.20;99.90;;;;;;5012108;28;20110;-43
2024/03/16 07:13:02;;;;;;;7.50;2.42;;;11.30;99.90;;;;;;5012470;28;20022;-44
2024/03/16 07:15:28;;;;;;;2.90;2.70;;;11.40;99.90;;;;;;5012120;28;20379;-43
2024/03/16 07:17:53;;;;;;;5.28;2.58;;;11.50;99.90;;;;;;5012039;28;20470;-43
2024/03/16 07:20:19;;;;;;;4.95;2.85;;;11.50;99.90;;;;;;5027391;28;20049;-43
2024/03/16 07:22:45;;;;;;;3.30;2.40;;;11.50;99.90;;;;;;5012111;28;20022;-45
2024/03/16 07:25:10;;;;;;;5.25;3.05;;;11.50;99.90;;;;;;5012151;28;20018;-46
2024/03/16 07:27:37;;;;;;;5.05;2.80;;;11.50;99.90;;;;;;5011761;28;20028;-43
2024/03/16 07:30:02;;;;;;;2.78;2.55;;;11.60;99.90;;;;;;5011973;28;20092;-45
2024/03/16 07:32:28;;;;;;;6.75;3.53;;;11.60;99.90;;;;;;5011770;28;20437;-45
2024/03/16 07:34:53;;;;;;;5.90;2.90;;;11.60;99.90;;;;;;5011858;28;20093;-43
2024/03/16 07:37:19;;;;;;;5.25;3.47;;;11.60;99.90;;;;;;5036918;23;20534;-52
2024/03/16 07:39:44;;;;;;;5.28;2.88;;;11.70;99.90;;;;;;5030183;28;20026;-50
2024/03/16 07:42:10;;;;;;;4.47;3.50;;;11.80;99.90;;;;;;5021708;28;20029;-55
2024/03/16 07:44:35;;;;;;;3.97;3.17;;;11.80;99.90;;;;;;5011839;28;20041;-52
2024/03/16 07:47:01;;;;;;;2.63;2.42;;;11.90;99.90;;;;;;5011595;28;20389;-50
2024/03/16 07:49:26;;;;;;;5.18;3.08;;;11.90;99.90;;;;;;5011874;28;20525;-53
2024/03/16 07:51:52;;;;;;;7.07;3.75;;;11.90;99.90;;;;;;5012047;28;20029;-49
2024/03/16 07:54:17;;;;;;;7.43;3.00;;;11.90;99.90;;;;;;5011781;28;20072;-50
2024/03/16 07:56:43;;;;;;;4.72;2.92;;;11.80;99.90;;;;;;5011695;28;20029;-50
2024/03/16 07:59:09;;;;;;;3.72;3.30;;;11.90;99.90;;;;;;5011829;28;20026;-50
2024/03/16 08:01:36;;;;;;;2.90;2.55;;;11.90;99.90;;;;;;5010570;28;20060;-50
2024/03/16 08:04:02;;;;;;;4.22;3.50;;;11.90;99.90;;;;;;5012519;28;20029;-52
2024/03/16 08:06:27;;;;;;;4.28;2.65;;;12.10;99.90;;;;;;5015741;28;20029;-52
2024/03/16 08:08:53;;;;;;;3.33;2.53;;;12.20;99.90;;;;;;5015666;28;20030;-44
2024/03/16 08:11:22;;;;;;;4.22;2.20;;;12.30;99.90;;;;;;5015514;28;20080;-53
2024/03/16 08:13:47;;;;;;;4.45;2.70;;;12.40;99.90;;;;;;5015392;28;20050;-53
2024/03/16 08:16:13;;;;;;;2.58;2.33;;;12.60;99.90;;;;;;5015675;28;20056;-51
2024/03/16 08:18:38;;;;;;;6.53;2.42;;;12.80;99.90;;;;;;5015538;28;20084;-49
2024/03/16 08:21:04;;;;;;;3.00;2.30;;;12.90;99.90;;;;;;5015331;28;20025;-53
2024/03/16 08:23:29;;;;;;;3.17;1.80;;;13.10;99.90;;;;;;5015115;28;20034;-52
2024/03/16 08:25:55;;;;;;;2.35;1.75;;;13.20;99.90;;;;;;5015149;28;20049;-51
2024/03/16 08:28:21;;;;;;;3.15;1.85;;;13.20;99.90;;;;;;5013992;28;20034;-52
2024/03/16 08:30:47;;;;;;;3.15;1.70;;;13.30;99.90;;;;;;5015083;28;20026;-51
2024/03/16 08:33:13;;;;;;;4.32;1.90;;;13.30;99.90;;;;;;5013936;28;20489;-52
2024/03/16 08:35:38;;;;;;;3.70;2.00;;;13.20;99.90;;;;;;5015192;28;20022;-53
2024/03/16 08:38:07;;;;;;;1.85;1.73;;;13.20;99.90;;;;;;5014932;28;20030;-53
2024/03/16 08:40:33;;;;;;;4.10;2.38;;;13.20;99.90;;;;;;5015132;28;20033;-55
2024/03/16 08:42:58;;;;;;;2.38;1.40;;;13.20;99.90;;;;;;5014878;28;20053;-52
2024/03/16 08:45:24;;;;;;;2.72;1.42;;;13.20;99.90;;;;;;5014969;28;20156;-50
2024/03/16 08:47:50;;;;;;;2.35;2.15;;;13.20;99.90;;;;;;5014839;28;20068;-53
2024/03/16 08:50:15;;;;;;;1.90;1.30;;;13.20;99.90;;;;;;5014607;28;20097;-50
2024/03/16 08:52:42;;;;;;;1.38;1.30;;;13.30;99.90;;;;;;5029964;28;20026;-55
2024/03/16 08:55:12;;;;;;;2.97;1.70;;;13.30;99.90;;;;;;5015014;28;20037;-55
2024/03/16 08:57:39;;;;;;;2.65;1.63;;;13.30;99.90;;;;;;5014968;28;20449;-56
2024/03/16 09:00:05;;;;;;;1.75;1.30;;;13.40;99.90;;;;;;5014729;28;20022;-53
2024/03/16 09:02:31;;;;;;;1.27;1.27;;;13.40;99.90;;;;;;5014857;28;20482;-49
2024/03/16 09:04:56;;;;;;;2.20;0.90;;;13.50;99.90;;;;;;5014760;28;20072;-50
2024/03/16 09:07:23;;;;;;;1.92;0.85;;;13.60;99.90;;;;;;5028780;28;20037;-52
2024/03/16 09:09:49;;;;;;;2.10;0.75;;;13.70;99.90;;;;;;5033863;28;20022;-53
2024/03/16 09:12:14;;;;;;;1.48;0.70;;;13.80;99.90;;;;;;5033181;28;20040;-53
2024/03/16 09:14:40;;;;;;;4.57;0.77;;;13.80;99.90;;;;;;5032987;28;20017;-52
2024/03/16 09:17:05;;;;;;;2.30;1.00;;;13.90;99.90;;;;;;5033852;28;20066;-53
2024/03/16 09:19:34;;;;;;;4.50;0.80;;;13.90;99.90;;;;;;5032728;28;20048;-55
2024/03/16 09:22:00;;;;;;;0.60;0.50;;;14.00;99.90;;;;;;5033756;28;20061;-52
2024/03/16 09:24:25;;;;;;;1.73;0.65;;;14.20;99.90;;;;;;5033879;28;20486;-59
2024/03/16 09:26:51;;;;;;;0.82;0.82;;;14.20;99.90;;;;;;5031776;28;20410;-49
2024/03/16 09:29:17;;;;;;;1.85;0.70;;;14.20;99.90;;;;;;5015510;28;20049;-51
2024/03/16 09:31:42;;;;;;;1.85;0.82;;;14.20;99.90;;;;;;5033281;28;20509;-53
2024/03/16 09:34:08;;;;;;;2.50;0.60;;;14.20;99.90;;;;;;5033563;28;20026;-53
2024/03/16 09:36:34;;;;;;;1.67;0.70;;;14.20;99.90;;;;;;5033588;28;20030;-54
2024/03/16 09:38:59;;;;;;;1.83;0.90;;;14.20;99.90;;;;;;5034047;28;20026;-52
2024/03/16 09:41:25;;;;;;;0.82;0.80;;;14.10;99.90;;;;;;5033570;28;20036;-52
2024/03/16 09:43:52;;;;;;;0.60;0.60;;;14.10;99.90;;;;;;5033931;28;20029;-54
2024/03/16 09:46:18;;;;;;;2.90;0.95;;;14.00;99.90;;;;;;5033778;28;20022;-52
2024/03/16 09:48:44;;;;;;;0.85;0.70;;;14.00;99.90;;;;;;5033764;28;20025;-52
2024/03/16 09:51:15;;;;;;;1.08;0.50;;;13.90;99.90;;;;;;5033876;28;20025;-50
2024/03/16 09:53:41;;;;;;;0.75;0.57;;;13.80;99.90;;;;;;5033486;28;20084;-53
2024/03/16 09:56:10;;;;;;;1.85;0.60;;;13.70;99.90;;;;;;5033774;28;20021;-53
2024/03/16 09:58:40;;;;;;;0.60;0.60;;;13.80;99.90;;;;;;5033572;28;20080;-51
2024/03/16 10:01:06;;;;;;;0.45;0.40;;;13.80;99.90;;;;;;5033294;28;20045;-56
2024/03/16 10:03:33;;;;;;;2.28;0.50;;;13.90;99.90;;;;;;5033659;28;20029;-53
2024/03/16 10:06:11;;;;;;;0.80;0.55;;;14.30;99.90;;;;;;5033028;28;20025;-52
2024/03/16 10:08:39;;;;;;;1.20;1.02;;;14.70;99.90;;;;;;5033265;28;20018;-54
2024/03/16 10:11:10;;;;;;;0.73;0.40;;;15.20;99.90;;;;;;5033612;28;20442;-48
2024/03/16 10:13:39;;;;;;;0.70;0.40;;;15.50;99.90;;;;;;5033012;28;20025;-57
2024/03/16 10:16:11;;;;;;;0.38;0.38;;;15.60;99.90;;;;;;5033145;28;20025;-54
2024/03/16 10:18:36;;;;;;;0.20;0.20;;;15.60;99.90;;;;;;5031823;28;20025;-54
2024/03/16 10:21:03;;;;;;;0.35;0.35;;;15.50;99.90;;;;;;5027206;28;20035;-54
2024/03/16 10:23:31;;;;;;;0.93;0.50;;;15.40;99.90;;;;;;5033121;28;20553;-49
2024/03/16 10:25:57;;;;;;;0.38;0.30;;;15.50;99.90;;;;;;5032660;28;20030;-52
2024/03/16 10:28:24;;;;;;;0.55;0.55;;;15.60;99.90;;;;;;5033393;28;20400;-50
2024/03/16 10:30:49;;;;;;;0.80;0.55;;;15.90;99.90;;;;;;5043707;28;20057;-49
2024/03/16 10:33:18;;;;;;;2.95;1.20;;;15.90;99.90;;;;;;5032254;28;20072;-56
2024/03/16 10:35:44;;;;;;;0.35;0.30;;;15.80;99.90;;;;;;5028864;28;20028;-53
2024/03/16 10:38:13;;;;;;;3.25;2.28;;;15.80;99.90;;;;;;5032512;28;20028;-54
2024/03/16 10:40:40;;;;;;;15.18;9.88;;;15.70;99.90;;;;;;5031958;28;20121;-57
2024/03/16 10:43:13;;;;;;;1.52;1.05;;;15.50;99.90;;;;;;5032643;28;20037;-56
2024/03/16 10:45:45;;;;;;;2.00;0.40;;;15.40;99.90;;;;;;5032723;28;20448;-54
2024/03/16 10:48:11;;;;;;;0.68;0.40;;;15.50;99.90;;;;;;5034157;28;20080;-55
2024/03/16 10:50:37;;;;;;;0.28;0.28;;;15.10;99.90;;;;;;5052099;28;20503;-51
2024/03/16 10:53:06;;;;;;;1.10;0.95;;;14.70;99.90;;;;;;5030954;28;20032;-49
2024/03/16 10:55:33;;;;;;;0.47;0.43;;;14.30;99.90;;;;;;5029760;28;20056;-53
2024/03/16 10:58:00;;;;;;;1.73;1.63;;;14.10;99.90;;;;;;5020047;28;20497;-52
2024/03/16 11:00:34;;;;;;;0.63;0.63;;;13.90;99.90;;;;;;5012784;28;20037;-51
2024/03/16 11:03:07;;;;;;;1.63;0.27;;;13.80;99.90;;;;;;5018835;28;20160;-53
2024/03/16 11:05:47;;;;;;;2.45;0.40;;;13.80;99.90;;;;;;5012466;28;20525;-53
2024/03/16 11:08:13;;;;;;;0.88;0.57;;;13.70;99.90;;;;;;5011507;28;20148;-62
2024/03/16 11:10:40;;;;;;;0.60;0.60;;;13.60;99.90;;;;;;5024061;28;20533;-52
2024/03/16 11:13:16;;;;;;;0.70;0.52;;;13.60;99.90;;;;;;5029461;28;20168;-58
2024/03/16 11:15:43;;;;;;;0.40;0.40;;;13.50;99.90;;;;;;5029575;28;20021;-53
2024/03/16 11:18:21;;;;;;;1.05;0.70;;;13.50;99.90;;;;;;5030384;28;20014;-51
2024/03/16 11:20:50;;;;;;;0.82;0.65;;;13.60;99.90;;;;;;5031589;28;20028;-51
2024/03/16 11:23:27;;;;;;;1.10;1.10;;;13.70;99.90;;;;;;5032006;28;20392;-45
2024/03/16 11:25:53;;;;;;;0.85;0.85;;;13.90;99.90;;;;;;5031583;28;20168;-55
2024/03/16 11:28:19;;;;;;;0.85;0.77;;;14.00;99.90;;;;;;5031689;28;20025;-54
2024/03/16 11:30:46;;;;;;;1.27;0.90;;;13.90;99.90;;;;;;5029995;28;20037;-55
2024/03/16 11:33:18;;;;;;;2.08;0.80;;;14.10;99.90;;;;;;5031579;28;20017;-53
2024/03/16 11:35:44;;;;;;;1.10;1.10;;;14.00;99.90;;;;;;5031391;28;20018;-52
2024/03/16 11:38:11;;;;;;;1.52;1.27;;;13.90;99.90;;;;;;5029994;28;20128;-57
2024/03/16 11:40:40;;;;;;;1.25;1.00;;;14.00;99.90;;;;;;5031275;28;20414;-54
2024/03/16 11:43:11;;;;;;;1.70;0.93;;;14.00;99.90;;;;;;5031751;28;20033;-56
2024/03/16 11:45:39;;;;;;;0.98;0.88;;;14.00;99.90;;;;;;5031581;28;20028;-56
2024/03/16 11:48:05;;;;;;;1.45;0.90;;;14.10;99.90;;;;;;5031475;28;20026;-55
2024/03/16 11:50:34;;;;;;;0.77;0.77;;;14.30;99.90;;;;;;5031276;28;20030;-57
2024/03/16 11:53:01;;;;;;;0.80;0.80;;;14.60;99.90;;;;;;5030282;28;20125;-57
2024/03/16 11:55:29;;;;;;;0.63;0.60;;;14.90;99.90;;;;;;5031367;28;20420;-55
2024/03/16 11:57:57;;;;;;;0.70;0.70;;;15.10;99.90;;;;;;5031174;28;20099;-53
2024/03/16 12:00:22;;;;;;;0.75;0.63;;;15.30;99.90;;;;;;5031358;28;20404;-54
2024/03/16 12:02:51;;;;;;;0.60;0.60;;;15.40;99.90;;;;;;5031334;28;20109;-55
2024/03/16 12:05:16;;;;;;;0.68;0.68;;;15.40;99.90;;;;;;5031379;28;20032;-54
2024/03/16 12:07:46;;;;;;;1.05;1.00;;;15.50;99.90;;;;;;5031248;28;20025;-54
2024/03/16 12:10:14;;;;;;;0.80;0.80;;;15.30;99.90;;;;;;5031180;28;20100;-53
2024/03/16 12:12:40;;;;;;;0.90;0.68;;;15.00;99.90;;;;;;5031357;28;20022;-55
2024/03/16 12:15:09;;;;;;;1.73;0.70;;;14.90;99.90;;;;;;5030189;28;20116;-53
2024/03/16 12:17:36;;;;;;;1.35;0.85;;;14.70;99.90;;;;;;5031466;28;20089;-52
2024/03/16 12:20:05;;;;;;;0.93;0.85;;;14.60;99.90;;;;;;5030928;28;20026;-53
2024/03/16 12:22:31;;;;;;;1.45;0.95;;;14.50;99.90;;;;;;5030970;28;20021;-54
2024/03/16 12:24:58;;;;;;;2.53;1.77;;;14.40;99.90;;;;;;5031185;28;20029;-56
2024/03/16 12:27:24;;;;;;;1.27;1.00;;;14.20;99.90;;;;;;5031275;28;20159;-53
2024/03/16 12:29:49;;;;;;;1.02;0.80;;;14.10;99.90;;;;;;5031059;28;20060;-54
2024/03/16 12:32:15;;;;;;;3.00;1.15;;;14.10;99.90;;;;;;5029895;28;20515;-54
2024/03/16 12:34:40;;;;;;;5.57;1.02;;;14.00;99.90;;;;;;5031207;28;20026;-57
2024/03/16 12:37:07;;;;;;;1.20;0.88;;;14.10;99.90;;;;;;5030526;28;20033;-53
2024/03/16 12:39:33;;;;;;;0.80;0.80;;;14.20;99.90;;;;;;5030947;28;20014;-54
2024/03/16 12:41:59;;;;;;;1.35;1.20;;;14.20;99.90;;;;;;5031096;28;20025;-53
2024/03/16 12:44:24;;;;;;;1.48;0.80;;;14.10;99.90;;;;;;5031048;28;20061;-57
2024/03/16 12:46:51;;;;;;;1.17;0.80;;;14.20;99.90;;;;;;5030792;28;20389;-52